createdAt,value
2023-03-27T00:00:10.899Z,15.60
2023-03-27T00:02:38.912Z,14.57
2023-03-27T00:05:08.048Z,14.07
2023-03-27T00:07:37.368Z,14.83
2023-03-27T00:10:05.792Z,13.80
2023-03-27T00:12:33.750Z,14.17
2023-03-27T00:15:01.772Z,14.10
2023-03-27T00:17:30.242Z,13.90
2023-03-27T00:19:59.278Z,14.03
2023-03-27T00:22:27.373Z,13.57
2023-03-27T00:24:56.689Z,13.67
2023-03-27T00:27:25.130Z,15.00
2023-03-27T00:29:53.938Z,13.57
2023-03-27T00:32:22.076Z,14.20
2023-03-27T00:34:50.081Z,14.73
2023-03-27T00:37:18.068Z,13.90
2023-03-27T00:39:50.028Z,14.47
2023-03-27T00:42:22.745Z,14.20
2023-03-27T00:44:51.897Z,15.53
2023-03-27T00:47:23.065Z,15.93
2023-03-27T00:49:51.941Z,14.23
2023-03-27T00:52:21.401Z,14.60
2023-03-27T00:54:49.854Z,14.93
2023-03-27T00:57:22.045Z,15.00
2023-03-27T00:59:53.069Z,15.77
2023-03-27T01:02:22.769Z,15.40
2023-03-27T01:04:51.926Z,14.63
2023-03-27T01:07:20.794Z,15.00
2023-03-27T01:09:49.680Z,15.50
2023-03-27T01:12:34.749Z,14.37
2023-03-27T01:15:17.683Z,15.40
2023-03-27T01:17:56.931Z,14.67
2023-03-27T01:21:00.214Z,15.37
2023-03-27T01:24:11.382Z,14.53
2023-03-27T01:27:01.485Z,16.20
2023-03-27T01:29:47.173Z,15.37
2023-03-27T01:32:50.538Z,15.00
2023-03-27T01:35:33.145Z,14.43
2023-03-27T01:38:34.356Z,15.17
2023-03-27T01:41:10.999Z,15.17
2023-03-27T01:43:43.165Z,16.10
2023-03-27T01:46:19.226Z,14.50
2023-03-27T01:48:52.308Z,15.13
2023-03-27T01:51:24.103Z,15.97
2023-03-27T01:53:56.534Z,15.47
2023-03-27T01:56:32.846Z,15.73
2023-03-27T01:59:05.768Z,15.97
2023-03-27T02:01:37.355Z,15.17
2023-03-27T02:04:09.223Z,16.03
2023-03-27T02:06:42.473Z,16.40
2023-03-27T02:09:13.694Z,16.53
2023-03-27T02:11:48.062Z,16.27
2023-03-27T02:14:20.971Z,16.30
2023-03-27T02:16:54.206Z,15.70
2023-03-27T02:19:30.066Z,15.77
2023-03-27T02:21:58.139Z,15.27
2023-03-27T02:24:26.249Z,15.93
2023-03-27T02:27:01.881Z,14.87
2023-03-27T02:29:43.335Z,14.73
2023-03-27T02:32:23.537Z,13.80
2023-03-27T02:35:10.170Z,13.97
2023-03-27T02:37:51.372Z,14.70
2023-03-27T02:40:29.732Z,16.73
2023-03-27T02:43:23.074Z,15.10
2023-03-27T02:45:57.797Z,15.67
2023-03-27T02:48:31.654Z,14.10
2023-03-27T02:51:04.413Z,13.77
2023-03-27T02:53:38.239Z,14.23
2023-03-27T02:56:09.470Z,14.00
2023-03-27T02:58:46.110Z,13.60
2023-03-27T03:01:30.727Z,14.30
2023-03-27T03:04:13.468Z,13.67
2023-03-27T03:07:07.029Z,13.77
2023-03-27T03:09:40.541Z,14.47
2023-03-27T03:12:10.061Z,14.30
2023-03-27T03:14:45.143Z,15.37
2023-03-27T03:17:13.569Z,14.93
2023-03-27T03:19:41.875Z,14.63
2023-03-27T03:22:10.685Z,14.53
2023-03-27T03:24:42.343Z,15.03
2023-03-27T03:27:14.318Z,16.40
2023-03-27T03:29:53.121Z,17.27
2023-03-27T03:32:24.085Z,16.47
2023-03-27T03:34:56.939Z,15.10
2023-03-27T03:37:28.664Z,13.67
2023-03-27T03:39:58.488Z,14.37
2023-03-27T03:42:26.474Z,14.90
2023-03-27T03:44:56.489Z,14.30
2023-03-27T03:47:24.838Z,14.63
2023-03-27T03:49:52.985Z,17.80
2023-03-27T03:52:21.070Z,20.07
2023-03-27T03:54:49.219Z,20.87
2023-03-27T03:57:18.472Z,21.47
2023-03-27T04:00:01.134Z,20.63
2023-03-27T04:02:44.818Z,20.27
2023-03-27T04:05:15.558Z,20.13
2023-03-27T04:07:45.603Z,20.13
2023-03-27T04:10:34.816Z,20.37
2023-03-27T04:13:06.343Z,18.37
2023-03-27T04:15:39.726Z,19.20
2023-03-27T04:18:21.834Z,19.33
2023-03-27T04:20:50.186Z,18.23
2023-03-27T04:23:20.657Z,18.77
2023-03-27T04:25:49.368Z,17.40
2023-03-27T04:28:23.368Z,18.77
2023-03-27T04:31:07.220Z,17.73
2023-03-27T04:34:13.082Z,19.20
2023-03-27T04:37:01.392Z,19.77
2023-03-27T04:39:31.001Z,19.90
2023-03-27T04:41:59.267Z,20.60
2023-03-27T04:44:29.070Z,19.97
2023-03-27T04:47:01.790Z,20.93
2023-03-27T04:49:31.194Z,21.70
2023-03-27T04:52:03.971Z,20.03
2023-03-27T04:54:32.925Z,20.60
2023-03-27T04:57:02.205Z,20.83
2023-03-27T04:59:31.804Z,18.73
2023-03-27T05:02:21.458Z,19.93
2023-03-27T05:04:58.284Z,19.97
2023-03-27T05:07:32.602Z,19.10
2023-03-27T05:10:02.533Z,19.87
2023-03-27T05:12:30.999Z,20.03
2023-03-27T05:15:06.120Z,19.50
2023-03-27T05:17:43.568Z,20.50
2023-03-27T05:20:14.604Z,21.10
2023-03-27T05:22:43.652Z,22.20
2023-03-27T05:25:24.539Z,21.73
2023-03-27T05:27:54.423Z,23.10
2023-03-27T05:30:24.266Z,21.90
2023-03-27T05:33:01.610Z,21.43
2023-03-27T05:35:30.372Z,21.67
2023-03-27T05:37:59.950Z,19.73
2023-03-27T05:40:34.213Z,19.67
2023-03-27T05:43:04.624Z,20.13
2023-03-27T05:45:34.264Z,18.77
2023-03-27T05:48:04.990Z,18.80
2023-03-27T05:50:38.842Z,17.37
2023-03-27T05:53:15.624Z,17.03
2023-03-27T05:56:02.775Z,17.27
2023-03-27T05:58:38.716Z,15.20
2023-03-27T06:01:06.817Z,15.00
2023-03-27T06:03:38.336Z,14.23
2023-03-27T06:06:13.654Z,14.13
2023-03-27T06:08:44.745Z,13.43
2023-03-27T06:11:13.976Z,12.37
2023-03-27T06:13:45.881Z,11.07
2023-03-27T06:16:20.623Z,9.07
2023-03-27T06:19:08.618Z,10.23
2023-03-27T06:21:46.156Z,9.30
2023-03-27T06:24:14.275Z,7.20
2023-03-27T06:26:43.575Z,6.80
2023-03-27T06:29:12.262Z,6.63
2023-03-27T06:31:47.987Z,6.90
2023-03-27T06:34:25.220Z,5.80
2023-03-27T06:37:16.388Z,5.97
2023-03-27T06:39:44.465Z,5.97
2023-03-27T06:42:12.910Z,5.77
2023-03-27T06:44:53.019Z,5.43
2023-03-27T06:47:51.713Z,5.77
2023-03-27T06:50:36.941Z,4.90
2023-03-27T06:53:10.051Z,5.40
2023-03-27T06:55:46.363Z,5.17
2023-03-27T06:58:14.456Z,5.40
2023-03-27T07:00:43.720Z,5.10
2023-03-27T07:03:15.105Z,5.17
2023-03-27T07:06:02.064Z,4.67
2023-03-27T07:08:37.646Z,5.57
2023-03-27T07:11:11.791Z,4.40
2023-03-27T07:13:45.688Z,4.60
2023-03-27T07:16:22.424Z,4.53
2023-03-27T07:18:50.820Z,4.57
2023-03-27T07:21:20.592Z,4.23
2023-03-27T07:23:48.962Z,3.77
2023-03-27T07:26:22.411Z,3.50
2023-03-27T07:29:06.133Z,3.93
2023-03-27T07:31:51.560Z,3.13
2023-03-27T07:34:28.118Z,3.90
2023-03-27T07:37:15.975Z,3.77
2023-03-27T07:40:06.647Z,8.60
2023-03-27T07:42:35.195Z,4.80
2023-03-27T07:45:07.023Z,3.73
2023-03-27T07:47:35.114Z,2.97
2023-03-27T07:50:03.512Z,3.33
2023-03-27T07:52:34.720Z,2.70
2023-03-27T07:55:06.917Z,2.73
2023-03-27T07:57:59.881Z,2.33
2023-03-27T08:00:30.114Z,2.60
2023-03-27T08:03:12.079Z,3.70
2023-03-27T08:05:45.215Z,3.27
2023-03-27T08:08:17.741Z,3.30
2023-03-27T08:10:51.660Z,2.70
2023-03-27T08:13:19.689Z,2.90
2023-03-27T08:15:47.997Z,2.70
2023-03-27T08:18:25.461Z,2.80
2023-03-27T08:20:57.170Z,3.27
2023-03-27T08:23:28.034Z,2.77
2023-03-27T08:26:15.421Z,2.63
2023-03-27T08:29:04.916Z,3.17
2023-03-27T08:31:35.359Z,2.40
2023-03-27T08:34:05.978Z,2.60
2023-03-27T08:36:42.512Z,2.77
2023-03-27T08:39:11.862Z,2.47
2023-03-27T08:41:56.004Z,2.90
2023-03-27T08:44:32.469Z,2.90
2023-03-27T08:47:07.996Z,2.67
2023-03-27T08:49:48.265Z,3.17
2023-03-27T08:52:26.924Z,3.73
2023-03-27T08:55:06.487Z,2.93
2023-03-27T08:57:39.280Z,3.30
2023-03-27T09:00:19.581Z,3.40
2023-03-27T09:02:54.526Z,3.53
2023-03-27T09:05:27.380Z,5.50
2023-03-27T09:08:06.002Z,4.40
2023-03-27T09:10:39.836Z,5.10
2023-03-27T09:13:27.083Z,5.27
2023-03-27T09:16:00.793Z,4.20
2023-03-27T09:18:34.971Z,4.80
2023-03-27T09:21:10.170Z,4.50
2023-03-27T09:23:42.909Z,4.03
2023-03-27T09:26:18.313Z,3.70
2023-03-27T09:29:03.340Z,4.40
2023-03-27T09:31:41.486Z,3.67
2023-03-27T09:34:14.681Z,3.43
2023-03-27T09:36:43.380Z,3.90
2023-03-27T09:39:17.102Z,3.43
2023-03-27T09:41:49.960Z,3.90
2023-03-27T09:44:25.375Z,3.23
2023-03-27T09:47:00.103Z,3.83
2023-03-27T09:49:28.511Z,3.77
2023-03-27T09:52:00.167Z,4.03
2023-03-27T09:54:56.414Z,3.60
2023-03-27T09:57:38.584Z,2.87
2023-03-27T10:00:14.666Z,2.83
2023-03-27T10:03:01.777Z,2.97
2023-03-27T10:05:31.563Z,3.20
2023-03-27T10:07:59.721Z,3.07
2023-03-27T10:11:00.025Z,2.70
2023-03-27T10:13:46.648Z,2.73
2023-03-27T10:16:19.969Z,3.00
2023-03-27T10:19:01.247Z,2.67
2023-03-27T10:21:36.432Z,2.60
2023-03-27T10:24:07.982Z,2.70
2023-03-27T10:26:54.512Z,2.63
2023-03-27T10:29:27.385Z,2.70
2023-03-27T10:31:57.010Z,2.67
2023-03-27T10:34:37.932Z,3.13
2023-03-27T10:37:35.378Z,2.80
2023-03-27T10:40:27.406Z,3.00
2023-03-27T10:43:03.905Z,3.10
2023-03-27T10:45:42.897Z,3.20
2023-03-27T10:48:15.364Z,3.20
2023-03-27T10:50:53.237Z,2.90
2023-03-27T10:53:43.514Z,2.80
2023-03-27T10:56:25.325Z,2.77
2023-03-27T10:59:00.337Z,2.90
2023-03-27T11:01:38.091Z,3.10
2023-03-27T11:04:13.417Z,2.30
2023-03-27T11:06:50.501Z,2.40
2023-03-27T11:09:24.432Z,2.53
2023-03-27T11:12:04.253Z,2.80
2023-03-27T11:14:49.335Z,2.80
2023-03-27T11:17:29.472Z,2.30
2023-03-27T11:20:23.954Z,2.30
2023-03-27T11:23:28.544Z,2.30
2023-03-27T11:26:23.059Z,2.90
2023-03-27T11:28:56.578Z,2.37
2023-03-27T11:31:38.113Z,2.57
2023-03-27T11:34:12.573Z,2.37
2023-03-27T11:36:48.372Z,2.33
2023-03-27T11:39:37.177Z,2.50
2023-03-27T11:42:15.642Z,2.60
2023-03-27T11:44:44.690Z,2.40
2023-03-27T11:48:01.436Z,2.60
2023-03-27T11:50:44.934Z,2.77
2023-03-27T11:53:38.212Z,2.60
2023-03-27T11:56:24.810Z,2.93
2023-03-27T11:59:33.045Z,2.97
2023-03-27T12:02:17.598Z,2.60
2023-03-27T12:04:51.291Z,2.50
2023-03-27T12:07:47.719Z,2.80
2023-03-27T12:10:29.574Z,2.20
2023-03-27T12:13:41.129Z,2.30
2023-03-27T12:16:49.413Z,2.60
2023-03-27T12:19:41.736Z,2.50
2023-03-27T12:22:31.424Z,2.30
2023-03-27T12:25:31.013Z,2.30
2023-03-27T12:28:47.400Z,2.20
2023-03-27T12:31:44.079Z,2.20
2023-03-27T12:34:24.205Z,2.10
2023-03-27T12:36:53.601Z,2.37
2023-03-27T12:39:28.737Z,2.30
2023-03-27T12:42:14.035Z,2.30
2023-03-27T12:45:06.264Z,2.50
2023-03-27T12:47:34.471Z,2.50
2023-03-27T12:50:20.922Z,2.60
2023-03-27T12:52:53.364Z,2.00
2023-03-27T12:55:34.182Z,2.50
2023-03-27T12:58:06.014Z,2.50
2023-03-27T13:01:00.149Z,2.23
2023-03-27T13:04:13.450Z,2.30
2023-03-27T13:06:51.936Z,2.37
2023-03-27T13:09:33.917Z,2.10
2023-03-27T13:12:19.128Z,2.07
2023-03-27T13:15:27.322Z,2.30
2023-03-27T13:18:15.912Z,2.30
2023-03-27T13:20:49.166Z,2.13
2023-03-27T13:23:33.536Z,2.50
2023-03-27T13:26:17.175Z,2.47
2023-03-27T13:28:49.411Z,2.33
2023-03-27T13:31:52.569Z,2.50
2023-03-27T13:35:09.787Z,2.90
2023-03-27T13:37:48.388Z,3.77
2023-03-27T13:40:24.280Z,4.67
2023-03-27T13:43:10.876Z,3.70
2023-03-27T13:45:48.303Z,2.73
2023-03-27T13:49:16.583Z,3.00
2023-03-27T13:52:32.353Z,2.40
2023-03-27T13:55:38.462Z,2.50
2023-03-27T13:58:57.979Z,2.33
2023-03-27T14:01:42.654Z,2.30
2023-03-27T14:04:39.099Z,2.33
2023-03-27T14:07:46.838Z,2.40
2023-03-27T14:10:37.183Z,2.50
2023-03-27T14:13:23.493Z,2.77
2023-03-27T14:16:28.012Z,2.80
2023-03-27T14:19:38.708Z,2.07
2023-03-27T14:22:15.487Z,2.00
2023-03-27T14:24:58.690Z,2.00
2023-03-27T14:27:51.549Z,1.90
2023-03-27T14:30:22.105Z,2.20
2023-03-27T14:33:11.061Z,2.10
2023-03-27T14:35:44.111Z,2.40
2023-03-27T14:38:24.845Z,1.83
2023-03-27T14:40:57.686Z,2.20
2023-03-27T14:43:48.262Z,2.37
2023-03-27T14:46:16.804Z,2.90
2023-03-27T14:48:47.727Z,3.00
2023-03-27T14:51:20.147Z,2.30
2023-03-27T14:53:51.236Z,2.40
2023-03-27T14:56:30.178Z,2.37
2023-03-27T14:59:05.597Z,2.27
2023-03-27T15:01:55.378Z,2.40
2023-03-27T15:04:25.005Z,2.40
2023-03-27T15:06:55.932Z,2.00
2023-03-27T15:09:47.159Z,2.57
2023-03-27T15:12:37.018Z,2.97
2023-03-27T15:15:06.622Z,2.70
2023-03-27T15:17:38.784Z,2.80
2023-03-27T15:20:10.269Z,2.40
2023-03-27T15:22:43.169Z,3.50
2023-03-27T15:25:17.758Z,2.70
2023-03-27T15:27:52.629Z,2.70
2023-03-27T15:30:26.958Z,3.10
2023-03-27T15:33:01.733Z,3.90
2023-03-27T15:35:35.092Z,3.30
2023-03-27T15:38:04.891Z,4.70
2023-03-27T15:40:40.332Z,3.20
2023-03-27T15:43:24.350Z,4.27
2023-03-27T15:46:05.569Z,4.27
2023-03-27T15:48:35.751Z,4.20
2023-03-27T15:51:05.843Z,3.30
2023-03-27T15:53:37.422Z,4.20
2023-03-27T15:56:08.522Z,3.67
2023-03-27T15:58:47.807Z,4.67
2023-03-27T16:01:20.121Z,4.10
2023-03-27T16:03:50.501Z,4.17
2023-03-27T16:06:32.609Z,3.60
2023-03-27T16:09:01.734Z,3.90
2023-03-27T16:11:41.625Z,4.27
2023-03-27T16:14:29.559Z,3.90
2023-03-27T16:17:22.360Z,3.40
2023-03-27T16:19:53.211Z,3.67
2023-03-27T16:22:23.497Z,5.20
2023-03-27T16:24:53.154Z,6.40
2023-03-27T16:27:23.840Z,6.40
2023-03-27T16:29:54.325Z,3.87
2023-03-27T16:32:24.342Z,2.80
2023-03-27T16:34:52.573Z,2.83
2023-03-27T16:37:22.193Z,2.80
2023-03-27T16:39:50.398Z,2.63
2023-03-27T16:42:21.694Z,2.70
2023-03-27T16:44:51.185Z,3.00
2023-03-27T16:47:23.180Z,3.00
2023-03-27T16:50:08.189Z,3.17
2023-03-27T16:52:39.440Z,3.50
2023-03-27T16:55:08.549Z,5.20
2023-03-27T16:57:37.243Z,4.10
2023-03-27T17:00:06.531Z,3.90
2023-03-27T17:02:36.514Z,3.73
2023-03-27T17:05:04.972Z,5.40
2023-03-27T17:07:33.095Z,4.97
2023-03-27T17:10:01.998Z,3.83
2023-03-27T17:12:30.408Z,3.73
2023-03-27T17:14:58.344Z,3.70
2023-03-27T17:17:27.344Z,3.80
2023-03-27T17:19:56.987Z,5.03
2023-03-27T17:22:26.351Z,4.90
2023-03-27T17:24:57.136Z,5.47
2023-03-27T17:27:26.611Z,5.93
2023-03-27T17:29:55.659Z,5.20
2023-03-27T17:32:24.132Z,4.53
2023-03-27T17:34:52.401Z,3.73
2023-03-27T17:37:22.531Z,4.30
2023-03-27T17:39:50.803Z,4.37
2023-03-27T17:42:19.049Z,5.27
2023-03-27T17:44:47.046Z,4.70
2023-03-27T17:47:15.535Z,4.47
2023-03-27T17:49:45.143Z,3.80
2023-03-27T17:52:14.124Z,4.60
2023-03-27T17:54:43.479Z,4.07
2023-03-27T17:57:11.538Z,4.67
2023-03-27T17:59:39.543Z,4.23
2023-03-27T18:02:08.325Z,3.73
2023-03-27T18:04:36.433Z,4.27
2023-03-27T18:07:04.470Z,4.03
2023-03-27T18:09:34.868Z,4.90
2023-03-27T18:12:04.314Z,4.30
2023-03-27T18:14:32.277Z,4.40
2023-03-27T18:17:00.305Z,4.23
2023-03-27T18:19:28.457Z,3.70
2023-03-27T18:21:56.536Z,4.87
2023-03-27T18:24:24.535Z,3.67
2023-03-27T18:26:52.557Z,4.93
2023-03-27T18:29:22.347Z,3.93
2023-03-27T18:31:50.387Z,3.23
2023-03-27T18:34:18.677Z,4.43
2023-03-27T18:36:50.720Z,4.63
2023-03-27T18:39:19.017Z,4.37
2023-03-27T18:41:47.258Z,4.53
2023-03-27T18:44:15.618Z,5.00
2023-03-27T18:46:44.981Z,4.33
2023-03-27T18:49:23.687Z,5.20
2023-03-27T18:51:52.624Z,5.03
2023-03-27T18:54:20.752Z,5.83
2023-03-27T18:56:48.948Z,5.00
2023-03-27T18:59:17.155Z,4.70
2023-03-27T19:01:47.636Z,4.03
2023-03-27T19:04:17.245Z,4.13
2023-03-27T19:06:46.267Z,3.70
2023-03-27T19:09:14.489Z,3.80
2023-03-27T19:11:43.896Z,3.50
2023-03-27T19:14:32.390Z,3.23
2023-03-27T19:17:21.113Z,3.60
2023-03-27T19:20:19.041Z,2.90
2023-03-27T19:23:12.068Z,2.73
2023-03-27T19:25:49.125Z,2.60
2023-03-27T19:28:17.247Z,3.70
2023-03-27T19:30:50.083Z,4.23
2023-03-27T19:33:19.532Z,4.03
2023-03-27T19:35:47.515Z,4.37
2023-03-27T19:38:15.761Z,4.20
2023-03-27T19:40:46.083Z,4.83
2023-03-27T19:43:14.172Z,7.20
2023-03-27T19:45:42.182Z,5.03
2023-03-27T19:48:10.175Z,4.67
2023-03-27T19:50:42.009Z,3.97
2023-03-27T19:53:15.883Z,4.27
2023-03-27T19:55:44.272Z,4.00
2023-03-27T19:58:12.340Z,4.40
2023-03-27T20:00:40.348Z,4.17
2023-03-27T20:03:10.158Z,3.90
2023-03-27T20:05:41.316Z,3.90
2023-03-27T20:08:09.364Z,3.60
2023-03-27T20:10:37.332Z,3.53
2023-03-27T20:13:05.736Z,3.80
2023-03-27T20:15:34.846Z,3.70
2023-03-27T20:18:04.607Z,3.33
2023-03-27T20:20:32.694Z,3.77
2023-03-27T20:23:04.429Z,3.50
2023-03-27T20:25:33.854Z,3.50
2023-03-27T20:28:02.743Z,4.00
2023-03-27T20:30:32.117Z,4.37
2023-03-27T20:33:03.000Z,4.30
2023-03-27T20:35:32.843Z,3.90
2023-03-27T20:38:04.774Z,4.00
2023-03-27T20:43:16.701Z,4.17
2023-03-27T20:45:45.662Z,4.43
2023-03-27T20:48:21.947Z,4.63
2023-03-27T20:50:52.266Z,4.47
2023-03-27T20:53:26.212Z,4.87
2023-03-27T20:56:00.080Z,5.50
2023-03-27T20:58:29.226Z,5.40
2023-03-27T21:00:57.180Z,7.43
2023-03-27T21:03:25.328Z,7.80
2023-03-27T21:05:53.281Z,8.57
2023-03-27T21:08:21.334Z,8.50
2023-03-27T21:10:54.361Z,7.43
2023-03-27T21:13:23.686Z,7.20
2023-03-27T21:15:51.620Z,6.00
2023-03-27T21:18:20.663Z,6.93
2023-03-27T21:20:48.632Z,6.93
2023-03-27T21:23:16.691Z,8.33
2023-03-27T21:25:45.540Z,8.20
2023-03-27T21:28:13.740Z,9.03
2023-03-27T21:30:46.198Z,9.53
2023-03-27T21:33:16.366Z,10.30
2023-03-27T21:35:46.913Z,10.43
2023-03-27T21:38:16.022Z,10.03
2023-03-27T21:40:44.042Z,9.60
2023-03-27T21:43:13.102Z,8.40
2023-03-27T21:45:42.551Z,7.70
2023-03-27T21:48:11.038Z,6.63
2023-03-27T21:50:39.159Z,6.77
2023-03-27T21:53:07.194Z,7.23
2023-03-27T21:55:35.784Z,7.67
2023-03-27T21:58:03.805Z,7.73
2023-03-27T22:00:31.853Z,8.20
2023-03-27T22:03:01.363Z,8.07
2023-03-27T22:05:29.403Z,7.60
2023-03-27T22:07:57.841Z,7.43
2023-03-27T22:10:25.826Z,5.97
2023-03-27T22:12:53.764Z,7.10
2023-03-27T22:15:21.724Z,7.03
2023-03-27T22:17:49.916Z,6.33
2023-03-27T22:20:19.432Z,5.23
2023-03-27T22:22:48.497Z,6.37
2023-03-27T22:25:16.614Z,6.30
2023-03-27T22:27:44.891Z,5.80
2023-03-27T22:30:13.221Z,5.50
2023-03-27T22:32:41.913Z,5.77
2023-03-27T22:35:11.257Z,4.93
2023-03-27T22:37:41.015Z,6.33
2023-03-27T22:40:10.133Z,7.13
2023-03-27T22:42:38.388Z,7.80
2023-03-27T22:45:07.265Z,7.87
2023-03-27T22:47:35.875Z,6.97
2023-03-27T22:50:06.328Z,7.87
2023-03-27T22:52:34.652Z,10.50
2023-03-27T22:55:04.262Z,10.90
2023-03-27T22:57:32.248Z,10.57
2023-03-27T23:00:00.354Z,10.20
2023-03-27T23:02:28.443Z,10.90
2023-03-27T23:04:56.533Z,9.47
2023-03-27T23:07:24.454Z,10.93
2023-03-27T23:09:52.342Z,10.67
2023-03-27T23:12:21.609Z,8.77
2023-03-27T23:14:49.562Z,8.00
2023-03-27T23:17:17.689Z,8.57
2023-03-27T23:19:45.631Z,8.20
2023-03-27T23:22:13.651Z,8.20
2023-03-27T23:24:41.585Z,9.27
2023-03-27T23:27:09.542Z,8.73
2023-03-27T23:29:38.974Z,8.40
2023-03-27T23:32:07.274Z,8.30
2023-03-27T23:34:35.289Z,7.83
2023-03-27T23:37:03.377Z,6.10
2023-03-27T23:39:31.346Z,6.03
2023-03-27T23:41:59.319Z,5.13
2023-03-27T23:44:27.246Z,6.40
2023-03-27T23:46:56.591Z,6.03
2023-03-27T23:49:24.705Z,6.00
2023-03-27T23:51:52.654Z,5.73
2023-03-27T23:54:20.565Z,5.30
2023-03-27T23:56:48.573Z,5.70
2023-03-27T23:59:16.566Z,5.00
